Time;durP1;ratioP1;P1;durP2;ratioP2;P2;SDS_P1;SDS_P2;PMS_P1;PMS_P2;Temp;Humidity;BMP_temperature;BMP_pressure;BME280_temperature;BME280_humidity;BME280_pressure;Samples;Min_cycle;Max_cycle;Signal;HPM_P1;HPM_P2
2024/01/19 00:02:21;;;;;;;4.38;3.55;;;;;;;;;;5063180;28;20369;-79
2024/01/19 00:04:47;;;;;;;4.38;3.65;;;;;;;;;;5064059;28;20370;-79
2024/01/19 00:07:13;;;;;;;4.90;3.58;;;;;;;;;;5064073;28;20384;-80
2024/01/19 00:09:39;;;;;;;4.63;3.50;;;;;;;;;;5063983;28;20396;-79
2024/01/19 00:12:05;;;;;;;4.00;3.20;;;;;;;;;;5063286;28;20453;-79
2024/01/19 00:14:31;;;;;;;3.53;3.22;;;;;;;;;;5063468;28;20412;-80
2024/01/19 00:16:57;;;;;;;3.63;3.33;;;;;;;;;;5063081;28;20896;-80
2024/01/19 00:19:23;;;;;;;4.20;3.70;;;;;;;;;;5045222;28;20413;-80
2024/01/19 00:21:49;;;;;;;4.27;3.57;;;;;;;;;;5045249;28;20384;-79
2024/01/19 00:24:16;;;;;;;5.95;3.78;;;;;;;;;;5062890;28;20427;-78
2024/01/19 00:26:44;;;;;;;5.00;3.50;;;;;;;;;;5062674;28;20511;-80
2024/01/19 00:29:10;;;;;;;3.78;3.40;;;;;;;;;;5076370;28;20392;-79
2024/01/19 00:31:36;;;;;;;4.18;3.70;;;;;;;;;;5083415;28;20477;-80
2024/01/19 00:34:02;;;;;;;5.40;3.90;;;;;;;;;;5084024;28;20409;-79
2024/01/19 00:36:28;;;;;;;4.35;3.78;;;;;;;;;;5085146;28;20431;-80
2024/01/19 00:38:54;;;;;;;4.40;3.97;;;;;;;;;;5085896;28;20444;-79
2024/01/19 00:41:20;;;;;;;4.90;3.92;;;;;;;;;;5067812;28;20893;-80
2024/01/19 00:43:46;;;;;;;6.22;3.80;;;;;;;;;;5085438;28;20383;-80
2024/01/19 00:46:12;;;;;;;5.30;3.97;;;;;;;;;;5084800;28;20443;-79
2024/01/19 00:48:39;;;;;;;4.07;3.43;;;;;;;;;;5084341;28;20376;-80
2024/01/19 00:51:06;;;;;;;4.20;3.80;;;;;;;;;;5065754;28;20419;-79
2024/01/19 00:53:32;;;;;;;4.27;3.53;;;;;;;;;;5084150;28;20730;-80
2024/01/19 00:55:58;;;;;;;4.70;3.90;;;;;;;;;;5065616;28;20383;-79
2024/01/19 00:58:24;;;;;;;6.38;4.03;;;;;;;;;;5083421;28;20391;-79
2024/01/19 01:00:50;;;;;;;3.88;3.40;;;;;;;;;;5083507;28;20408;-80
2024/01/19 01:03:25;;;;;;;5.13;3.50;;;;;;;;;;5083545;28;20868;-78
2024/01/19 01:05:59;;;;;;;4.32;3.42;;;;;;;;;;5083757;28;20376;-80
2024/01/19 01:08:25;;;;;;;3.60;3.30;;;;;;;;;;5084299;28;20379;-80
2024/01/19 01:10:52;;;;;;;4.53;3.47;;;;;;;;;;5065733;28;20380;-81
2024/01/19 01:13:18;;;;;;;4.10;3.70;;;;;;;;;;5083632;28;20384;-80
2024/01/19 01:15:44;;;;;;;5.43;3.63;;;;;;;;;;5083155;28;20376;-80
2024/01/19 01:18:10;;;;;;;6.90;3.70;;;;;;;;;;5084294;28;20865;-79
2024/01/19 01:20:36;;;;;;;5.00;3.72;;;;;;;;;;5083538;28;20407;-81
2024/01/19 01:23:02;;;;;;;4.80;4.00;;;;;;;;;;5084190;28;20475;-80
2024/01/19 01:25:28;;;;;;;3.63;3.22;;;;;;;;;;5083682;28;20383;-80
2024/01/19 01:27:54;;;;;;;4.00;3.47;;;;;;;;;;5082573;28;20407;-79
2024/01/19 01:30:20;;;;;;;3.60;3.30;;;;;;;;;;5082263;28;20794;-80
2024/01/19 01:32:46;;;;;;;4.25;3.38;;;;;;;;;;5082231;28;20382;-79
2024/01/19 01:35:12;;;;;;;5.30;3.88;;;;;;;;;;5082359;28;20439;-80
2024/01/19 01:37:38;;;;;;;3.97;3.58;;;;;;;;;;5082057;28;20379;-79
2024/01/19 01:40:05;;;;;;;4.03;3.63;;;;;;;;;;5064275;28;20410;-80
2024/01/19 01:42:31;;;;;;;5.83;4.13;;;;;;;;;;5081816;28;20448;-79
2024/01/19 01:44:58;;;;;;;4.82;4.00;;;;;;;;;;5063804;28;20722;-80
2024/01/19 01:47:24;;;;;;;4.03;3.63;;;;;;;;;;5081172;28;20379;-81
2024/01/19 01:49:50;;;;;;;4.75;4.00;;;;;;;;;;5080426;28;20384;-79
2024/01/19 01:52:16;;;;;;;5.05;3.90;;;;;;;;;;5080512;28;20388;-81
2024/01/19 01:54:42;;;;;;;4.63;4.10;;;;;;;;;;5081128;28;20387;-79
2024/01/19 01:57:09;;;;;;;4.53;3.92;;;;;;;;;;5064088;28;20400;-80
2024/01/19 01:59:35;;;;;;;4.88;3.92;;;;;;;;;;5059849;28;20791;-80
2024/01/19 02:02:01;;;;;;;4.82;4.00;;;;;;;;;;5054398;28;20385;-80
2024/01/19 02:04:28;;;;;;;5.53;3.83;;;;;;;;;;5054383;28;20455;-81
2024/01/19 02:06:54;;;;;;;4.80;4.05;;;;;;;;;;5055518;28;20423;-80
2024/01/19 02:09:20;;;;;;;4.70;3.60;;;;;;;;;;5056423;28;20420;-79
2024/01/19 02:11:46;;;;;;;4.28;3.88;;;;;;;;;;5054544;28;20377;-79
2024/01/19 02:14:12;;;;;;;5.32;4.10;;;;;;;;;;5037146;28;20381;-80
2024/01/19 02:16:38;;;;;;;4.20;3.60;;;;;;;;;;5055145;28;20393;-80
2024/01/19 02:19:04;;;;;;;4.33;3.87;;;;;;;;;;5036831;28;20417;-81
2024/01/19 02:21:31;;;;;;;4.13;3.42;;;;;;;;;;5038086;28;20440;-80
2024/01/19 02:24:01;;;;;;;5.07;3.73;;;;;;;;;;5057591;28;20460;-80
2024/01/19 02:26:28;;;;;;;4.40;3.33;;;;;;;;;;5042243;28;20391;-79
2024/01/19 02:28:54;;;;;;;3.90;3.50;;;;;;;;;;5056533;28;20379;-79
2024/01/19 02:31:20;;;;;;;4.78;3.50;;;;;;;;;;5040845;28;20386;-79
2024/01/19 02:33:46;;;;;;;4.50;3.90;;;;;;;;;;5057028;28;20391;-80
2024/01/19 02:36:11;;;;;;;4.40;3.63;;;;;;;;;;5065117;28;20418;-79
2024/01/19 02:38:37;;;;;;;4.13;3.75;;;;;;;;;;5080755;28;20721;-79
2024/01/19 02:41:03;;;;;;;4.15;3.60;;;;;;;;;;5081973;28;20407;-79
2024/01/19 02:43:29;;;;;;;3.92;3.17;;;;;;;;;;5063196;28;20396;-81
2024/01/19 02:45:55;;;;;;;3.90;3.10;;;;;;;;;;5063740;28;20509;-80
2024/01/19 02:48:21;;;;;;;5.00;3.47;;;;;;;;;;5081625;28;20379;-80
2024/01/19 02:50:48;;;;;;;4.05;3.20;;;;;;;;;;5081955;28;20403;-79
2024/01/19 02:53:14;;;;;;;4.80;3.90;;;;;;;;;;5080826;28;20394;-80
2024/01/19 02:55:40;;;;;;;3.92;3.30;;;;;;;;;;5064127;28;20400;-80
2024/01/19 02:58:06;;;;;;;4.75;3.45;;;;;;;;;;5083024;28;20419;-79
2024/01/19 03:00:32;;;;;;;3.80;3.50;;;;;;;;;;5063613;28;20758;-80
2024/01/19 03:02:58;;;;;;;3.72;3.33;;;;;;;;;;5064098;28;20412;-80
2024/01/19 03:05:23;;;;;;;5.47;3.77;;;;;;;;;;5082508;28;20388;-79
2024/01/19 03:07:50;;;;;;;4.13;3.25;;;;;;;;;;5063814;28;20785;-81
2024/01/19 03:10:16;;;;;;;4.53;3.47;;;;;;;;;;5082595;28;20413;-80
2024/01/19 03:12:42;;;;;;;4.55;3.20;;;;;;;;;;5081184;28;20396;-82
2024/01/19 03:15:08;;;;;;;3.90;3.60;;;;;;;;;;5081280;28;20388;-80
2024/01/19 03:17:34;;;;;;;4.43;3.60;;;;;;;;;;5080265;28;20394;-81
2024/01/19 03:20:00;;;;;;;4.50;3.35;;;;;;;;;;5062354;28;20451;-81
2024/01/19 03:22:28;;;;;;;4.85;3.30;;;;;;;;;;5080389;28;20392;-80
2024/01/19 03:24:54;;;;;;;3.97;3.53;;;;;;;;;;5080275;28;20592;-79
2024/01/19 03:27:20;;;;;;;4.20;3.20;;;;;;;;;;5061601;28;20733;-80
2024/01/19 03:29:47;;;;;;;4.10;3.20;;;;;;;;;;5081268;28;20380;-80
2024/01/19 03:32:13;;;;;;;4.47;3.07;;;;;;;;;;5080783;28;20380;-80
2024/01/19 03:34:40;;;;;;;4.60;3.60;;;;;;;;;;5079274;28;20460;-79
2024/01/19 03:37:06;;;;;;;6.72;6.10;;;;;;;;;;5061746;28;20388;-80
2024/01/19 03:39:32;;;;;;;7.05;5.38;;;;;;;;;;5061239;28;20897;-79
2024/01/19 03:41:58;;;;;;;6.10;5.38;;;;;;;;;;5079344;28;20394;-80
2024/01/19 03:44:24;;;;;;;4.28;3.22;;;;;;;;;;5081285;28;20372;-80
2024/01/19 03:46:50;;;;;;;4.75;3.90;;;;;;;;;;5062068;28;20380;-81
2024/01/19 03:49:17;;;;;;;4.35;3.88;;;;;;;;;;5085590;28;20384;-81
2024/01/19 03:52:01;;;;;;;5.97;4.55;;;;;;;;;;5080820;28;20406;-80
2024/01/19 03:54:27;;;;;;;4.07;3.67;;;;;;;;;;5062648;28;20830;-81
2024/01/19 03:56:53;;;;;;;4.80;3.70;;;;;;;;;;5081324;28;20415;-81
2024/01/19 03:59:19;;;;;;;4.70;4.10;;;;;;;;;;5063985;28;20396;-80
2024/01/19 04:01:45;;;;;;;4.30;3.80;;;;;;;;;;5047231;28;20396;-80
2024/01/19 04:04:11;;;;;;;5.95;3.97;;;;;;;;;;5062445;28;20381;-81
2024/01/19 04:06:37;;;;;;;4.25;3.83;;;;;;;;;;5063279;28;20385;-81
2024/01/19 04:09:03;;;;;;;6.00;4.25;;;;;;;;;;5046400;28;20728;-80
2024/01/19 04:11:29;;;;;;;6.77;4.07;;;;;;;;;;5044485;28;20424;-80
2024/01/19 04:13:55;;;;;;;6.00;4.22;;;;;;;;;;5061679;28;20399;-81
2024/01/19 04:16:21;;;;;;;6.40;4.07;;;;;;;;;;5062043;28;20377;-80
2024/01/19 04:18:47;;;;;;;6.35;4.47;;;;;;;;;;5043998;28;20456;-80
2024/01/19 04:21:13;;;;;;;4.53;4.13;;;;;;;;;;5063092;28;20783;-80
2024/01/19 04:23:40;;;;;;;5.20;4.30;;;;;;;;;;5043426;28;20393;-80
2024/01/19 04:26:06;;;;;;;4.78;3.88;;;;;;;;;;5063215;28;20388;-80
2024/01/19 04:28:32;;;;;;;4.60;4.13;;;;;;;;;;5043224;28;20393;-81
2024/01/19 04:30:58;;;;;;;4.60;4.10;;;;;;;;;;5059979;28;20858;-80
2024/01/19 04:33:24;;;;;;;5.50;4.38;;;;;;;;;;5041664;28;20385;-81
2024/01/19 04:35:50;;;;;;;5.68;4.10;;;;;;;;;;5058549;28;20396;-81
2024/01/19 04:38:16;;;;;;;4.35;3.95;;;;;;;;;;5039676;28;20418;-80
2024/01/19 04:40:42;;;;;;;4.68;4.10;;;;;;;;;;5042800;28;20401;-80
2024/01/19 04:43:08;;;;;;;4.73;4.23;;;;;;;;;;5073094;28;20393;-80
2024/01/19 04:45:33;;;;;;;4.53;4.13;;;;;;;;;;5074063;28;20469;-80
2024/01/19 04:47:59;;;;;;;4.75;4.22;;;;;;;;;;5073472;28;20396;-80
2024/01/19 04:50:25;;;;;;;4.68;4.20;;;;;;;;;;5073289;28;20409;-80
2024/01/19 04:52:51;;;;;;;5.30;4.78;;;;;;;;;;5073051;28;20436;-80
2024/01/19 04:55:18;;;;;;;4.90;4.38;;;;;;;;;;5074953;28;20879;-80
2024/01/19 04:57:45;;;;;;;5.00;4.30;;;;;;;;;;5060864;28;20413;-80
2024/01/19 05:00:11;;;;;;;4.47;3.85;;;;;;;;;;5060713;28;20445;-81
2024/01/19 05:02:37;;;;;;;5.70;4.15;;;;;;;;;;5077058;28;20388;-82
2024/01/19 05:05:03;;;;;;;5.47;4.32;;;;;;;;;;5077691;28;20420;-80
2024/01/19 05:07:29;;;;;;;5.50;4.18;;;;;;;;;;5076988;28;20426;-81
2024/01/19 05:09:57;;;;;;;4.97;4.22;;;;;;;;;;5060664;28;20717;-80
2024/01/19 05:12:23;;;;;;;6.47;4.38;;;;;;;;;;5060130;28;20750;-80
2024/01/19 05:14:49;;;;;;;7.17;4.33;;;;;;;;;;5060233;28;20451;-82
2024/01/19 05:17:15;;;;;;;6.90;4.50;;;;;;;;;;5068536;28;20402;-81
2024/01/19 05:19:41;;;;;;;5.18;4.22;;;;;;;;;;5068254;28;20436;-81
2024/01/19 05:22:07;;;;;;;5.30;4.38;;;;;;;;;;5068749;28;20381;-81
2024/01/19 05:24:33;;;;;;;6.50;4.30;;;;;;;;;;5053208;28;20434;-81
2024/01/19 05:26:59;;;;;;;4.55;4.15;;;;;;;;;;5068378;28;20382;-80
2024/01/19 05:29:25;;;;;;;5.90;4.63;;;;;;;;;;5069026;28;20944;-80
2024/01/19 05:31:51;;;;;;;5.45;4.35;;;;;;;;;;5053638;28;20388;-80
2024/01/19 05:34:17;;;;;;;5.43;4.43;;;;;;;;;;5068976;28;20378;-80
2024/01/19 05:36:43;;;;;;;7.10;5.40;;;;;;;;;;5053587;28;20771;-80
2024/01/19 05:39:09;;;;;;;6.00;5.40;;;;;;;;;;5068827;28;20390;-81
2024/01/19 05:41:35;;;;;;;8.05;5.80;;;;;;;;;;5069680;28;20402;-81
2024/01/19 05:44:01;;;;;;;6.28;5.00;;;;;;;;;;5054884;28;20515;-80
2024/01/19 05:46:27;;;;;;;5.18;4.55;;;;;;;;;;5054509;28;20419;-80
2024/01/19 05:48:53;;;;;;;4.95;4.45;;;;;;;;;;5053590;28;20417;-81
2024/01/19 05:51:19;;;;;;;6.05;4.35;;;;;;;;;;5054349;28;20408;-80
2024/01/19 05:53:46;;;;;;;6.70;4.70;;;;;;;;;;5054693;28;20946;-80
2024/01/19 05:56:12;;;;;;;4.47;4.03;;;;;;;;;;5054864;28;20377;-81
2024/01/19 05:58:38;;;;;;;5.28;4.50;;;;;;;;;;5053813;28;20381;-80
2024/01/19 06:01:04;;;;;;;5.82;4.40;;;;;;;;;;5054155;28;20401;-81
2024/01/19 06:03:33;;;;;;;6.10;4.75;;;;;;;;;;5054690;28;20394;-80
2024/01/19 06:05:59;;;;;;;5.32;4.80;;;;;;;;;;5055429;28;20383;-80
2024/01/19 06:08:25;;;;;;;5.55;4.80;;;;;;;;;;5057560;28;20377;-81
2024/01/19 06:10:51;;;;;;;5.63;4.90;;;;;;;;;;5056487;28;20393;-80
2024/01/19 06:13:17;;;;;;;5.63;4.65;;;;;;;;;;5056455;28;20444;-80
2024/01/19 06:15:42;;;;;;;5.28;4.88;;;;;;;;;;5055571;28;20386;-80
2024/01/19 06:18:09;;;;;;;7.00;6.30;;;;;;;;;;5055721;28;20388;-80
2024/01/19 06:20:40;;;;;;;5.60;4.63;;;;;;;;;;5056238;28;20455;-80
2024/01/19 06:23:06;;;;;;;5.40;4.40;;;;;;;;;;5056772;28;20477;-80
2024/01/19 06:25:32;;;;;;;6.88;4.82;;;;;;;;;;5055997;28;20381;-80
2024/01/19 06:27:59;;;;;;;6.57;4.53;;;;;;;;;;5056258;28;20389;-80
2024/01/19 06:30:25;;;;;;;7.28;5.20;;;;;;;;;;5056314;28;20841;-80
2024/01/19 06:32:51;;;;;;;6.30;4.75;;;;;;;;;;5055851;28;20399;-80
2024/01/19 06:35:17;;;;;;;6.07;5.40;;;;;;;;;;5055749;28;20389;-80
2024/01/19 06:37:43;;;;;;;6.55;4.97;;;;;;;;;;5055937;28;20477;-79
2024/01/19 06:40:10;;;;;;;4.80;4.30;;;;;;;;;;5074739;28;20495;-79
2024/01/19 06:42:36;;;;;;;5.63;4.78;;;;;;;;;;5076537;28;20379;-79
2024/01/19 06:45:03;;;;;;;6.30;5.40;;;;;;;;;;5076775;28;20404;-80
2024/01/19 06:47:29;;;;;;;5.97;5.20;;;;;;;;;;5076342;28;20422;-79
2024/01/19 06:49:55;;;;;;;5.80;4.68;;;;;;;;;;5075297;28;20771;-79
2024/01/19 06:52:21;;;;;;;6.35;5.05;;;;;;;;;;5077856;28;20383;-79
2024/01/19 06:54:47;;;;;;;6.10;5.07;;;;;;;;;;5079200;28;20380;-79
2024/01/19 06:57:13;;;;;;;6.25;5.28;;;;;;;;;;5077216;28;20431;-80
2024/01/19 06:59:39;;;;;;;5.43;4.93;;;;;;;;;;5078344;28;20415;-80
2024/01/19 07:02:05;;;;;;;6.40;5.10;;;;;;;;;;5078675;28;20378;-82
2024/01/19 07:04:31;;;;;;;5.70;4.87;;;;;;;;;;5081123;28;20404;-81
2024/01/19 07:06:57;;;;;;;5.97;5.38;;;;;;;;;;5079724;28;20387;-81
2024/01/19 07:09:23;;;;;;;7.83;5.23;;;;;;;;;;5081176;28;20455;-82
2024/01/19 07:11:49;;;;;;;7.32;5.13;;;;;;;;;;5082396;28;20422;-81
2024/01/19 07:14:15;;;;;;;6.60;5.25;;;;;;;;;;5082136;28;20737;-80
2024/01/19 07:16:43;;;;;;;5.90;5.03;;;;;;;;;;5081658;28;20383;-80
2024/01/19 07:19:09;;;;;;;5.93;5.32;;;;;;;;;;5063850;28;20383;-81
2024/01/19 07:21:41;;;;;;;5.75;5.18;;;;;;;;;;5082293;28;20753;-82
2024/01/19 07:24:08;;;;;;;6.50;5.30;;;;;;;;;;5084066;28;20440;-81
2024/01/19 07:26:35;;;;;;;7.68;4.78;;;;;;;;;;5083777;28;20811;-83
2024/01/19 07:29:04;;;;;;;5.13;4.63;;;;;;;;;;5083690;28;20375;-82
2024/01/19 07:31:31;;;;;;;7.47;4.90;;;;;;;;;;5086182;28;20387;-79
2024/01/19 07:33:57;;;;;;;5.77;5.00;;;;;;;;;;5084494;28;20438;-80
2024/01/19 07:36:23;;;;;;;5.70;5.10;;;;;;;;;;5084467;28;20384;-80
2024/01/19 07:38:49;;;;;;;6.68;5.07;;;;;;;;;;5082993;28;20479;-81
2024/01/19 07:41:15;;;;;;;6.05;5.40;;;;;;;;;;5083215;28;20427;-80
2024/01/19 07:43:41;;;;;;;6.88;5.57;;;;;;;;;;5084177;28;20455;-80
2024/01/19 07:46:07;;;;;;;8.93;7.40;;;;;;;;;;5083330;28;20756;-81
2024/01/19 07:48:33;;;;;;;7.20;5.88;;;;;;;;;;5083746;28;20388;-80
2024/01/19 07:50:59;;;;;;;7.38;4.97;;;;;;;;;;5064350;28;20737;-79
2024/01/19 07:53:25;;;;;;;6.50;5.25;;;;;;;;;;5083335;28;20415;-80
2024/01/19 07:55:51;;;;;;;7.85;5.43;;;;;;;;;;5081218;28;20376;-80
2024/01/19 07:58:17;;;;;;;6.18;5.10;;;;;;;;;;5081602;28;20827;-81
2024/01/19 08:00:43;;;;;;;7.30;5.63;;;;;;;;;;5069948;28;20751;-79
2024/01/19 08:03:09;;;;;;;6.07;5.57;;;;;;;;;;5062012;28;20554;-80
2024/01/19 08:05:35;;;;;;;6.40;5.22;;;;;;;;;;5062257;28;20377;-80
2024/01/19 08:08:01;;;;;;;7.80;5.90;;;;;;;;;;5061777;28;20728;-80
2024/01/19 08:10:31;;;;;;;9.07;8.10;;;;;;;;;;5061238;28;20443;-81
2024/01/19 08:12:59;;;;;;;9.35;6.65;;;;;;;;;;5061606;28;20381;-79
2024/01/19 08:15:25;;;;;;;7.93;6.38;;;;;;;;;;5060507;28;20426;-80
2024/01/19 08:17:51;;;;;;;7.40;6.32;;;;;;;;;;5043465;28;20412;-80
2024/01/19 08:20:17;;;;;;;8.45;6.43;;;;;;;;;;5059567;28;20944;-80
2024/01/19 08:22:43;;;;;;;6.50;5.57;;;;;;;;;;5061454;28;20436;-81
2024/01/19 08:25:09;;;;;;;6.68;5.70;;;;;;;;;;5062694;28;20828;-81
2024/01/19 08:27:35;;;;;;;5.85;5.13;;;;;;;;;;5061980;28;20481;-79
2024/01/19 08:30:02;;;;;;;6.17;5.23;;;;;;;;;;5061241;28;20397;-80
2024/01/19 08:32:28;;;;;;;7.28;5.65;;;;;;;;;;5060089;28;20451;-80
2024/01/19 08:34:54;;;;;;;9.57;6.77;;;;;;;;;;5058830;28;20424;-82
2024/01/19 08:37:20;;;;;;;6.43;5.82;;;;;;;;;;5068027;28;20467;-82
2024/01/19 08:39:46;;;;;;;7.20;6.23;;;;;;;;;;5079706;28;20410;-81
2024/01/19 08:42:12;;;;;;;7.07;5.60;;;;;;;;;;5077177;28;20380;-81
2024/01/19 08:44:38;;;;;;;7.22;6.07;;;;;;;;;;5077506;28;20406;-82
2024/01/19 08:47:04;;;;;;;7.22;6.50;;;;;;;;;;5078045;28;20375;-80
2024/01/19 08:49:30;;;;;;;8.93;7.22;;;;;;;;;;5077734;28;20410;-81
2024/01/19 08:51:56;;;;;;;7.22;6.40;;;;;;;;;;5077810;28;20446;-81
2024/01/19 08:54:22;;;;;;;7.53;5.88;;;;;;;;;;5078403;28;20394;-81
2024/01/19 08:56:48;;;;;;;7.78;6.95;;;;;;;;;;5077752;28;20793;-80
2024/01/19 08:59:14;;;;;;;6.57;5.88;;;;;;;;;;5077258;28;20419;-80
2024/01/19 09:01:40;;;;;;;7.47;6.10;;;;;;;;;;5077693;28;20458;-80
2024/01/19 09:04:06;;;;;;;7.38;6.10;;;;;;;;;;5076978;28;20400;-80
2024/01/19 09:06:32;;;;;;;8.18;6.35;;;;;;;;;;5076661;28;20853;-80
2024/01/19 09:09:01;;;;;;;16.08;10.05;;;;;;;;;;5076856;28;20828;-81
2024/01/19 09:11:27;;;;;;;10.50;8.05;;;;;;;;;;5076696;28;20415;-79
2024/01/19 09:13:53;;;;;;;8.02;6.32;;;;;;;;;;5058726;28;20379;-80
2024/01/19 09:16:19;;;;;;;6.78;6.07;;;;;;;;;;5075400;28;20396;-81
2024/01/19 09:18:45;;;;;;;7.65;6.88;;;;;;;;;;5076904;28;20853;-81
2024/01/19 09:21:18;;;;;;;6.68;5.93;;;;;;;;;;5076430;28;20404;-80
2024/01/19 09:23:44;;;;;;;8.40;5.53;;;;;;;;;;5075884;28;20440;-80
2024/01/19 09:26:28;;;;;;;6.80;6.10;;;;;;;;;;5075919;28;20811;-79
2024/01/19 09:28:54;;;;;;;6.63;5.93;;;;;;;;;;5076851;28;20372;-81
2024/01/19 09:31:20;;;;;;;7.03;5.55;;;;;;;;;;5077157;28;20749;-80
2024/01/19 09:33:47;;;;;;;7.22;5.70;;;;;;;;;;5076526;28;20383;-79
2024/01/19 09:36:13;;;;;;;7.57;5.97;;;;;;;;;;5078265;28;20418;-80
2024/01/19 09:38:39;;;;;;;6.65;5.97;;;;;;;;;;5076750;28;20714;-79
2024/01/19 09:41:19;;;;;;;5.95;5.28;;;;;;;;;;5076954;28;20916;-81
2024/01/19 09:43:45;;;;;;;8.73;5.28;;;;;;;;;;5076538;28;20506;-79
2024/01/19 09:46:15;;;;;;;6.90;6.20;;;;;;;;;;5076381;28;20853;-79
2024/01/19 09:48:45;;;;;;;9.65;7.60;;;;;;;;;;5076369;28;20434;-80
2024/01/19 09:51:11;;;;;;;7.40;6.45;;;;;;;;;;5075983;28;20402;-80
2024/01/19 09:53:42;;;;;;;8.50;5.93;;;;;;;;;;5076467;28;20463;-80
2024/01/19 09:56:09;;;;;;;8.65;5.97;;;;;;;;;;5076736;28;20411;-80
2024/01/19 09:58:35;;;;;;;10.40;8.02;;;;;;;;;;5076056;28;20388;-80
2024/01/19 10:01:01;;;;;;;9.98;7.60;;;;;;;;;;5063322;28;20409;-80
2024/01/19 10:03:30;;;;;;;8.43;6.88;;;;;;;;;;5055306;28;20398;-80
2024/01/19 10:05:56;;;;;;;7.38;6.20;;;;;;;;;;5055715;28;20374;-80
2024/01/19 10:08:23;;;;;;;7.97;6.07;;;;;;;;;;5055383;28;20370;-80
2024/01/19 10:10:50;;;;;;;6.63;5.32;;;;;;;;;;5055404;28;20735;-81
2024/01/19 10:13:17;;;;;;;6.13;5.35;;;;;;;;;;5054773;28;20378;-80
2024/01/19 10:15:44;;;;;;;6.38;5.07;;;;;;;;;;5054756;28;20384;-80
2024/01/19 10:18:10;;;;;;;8.43;7.30;;;;;;;;;;5036688;28;20964;-81
2024/01/19 10:20:38;;;;;;;8.23;6.35;;;;;;;;;;5054736;28;20405;-81
2024/01/19 10:23:23;;;;;;;5.60;4.00;;;;;;;;;;5054897;28;20377;-80
2024/01/19 10:25:50;;;;;;;5.90;4.40;;;;;;;;;;5054593;28;20389;-81
2024/01/19 10:28:29;;;;;;;4.93;3.90;;;;;;;;;;5054253;28;20471;-80
2024/01/19 10:31:12;;;;;;;5.82;4.20;;;;;;;;;;5055008;28;20389;-81
2024/01/19 10:33:39;;;;;;;6.10;4.20;;;;;;;;;;5038594;28;20397;-82
2024/01/19 10:36:05;;;;;;;5.55;4.50;;;;;;;;;;5055322;28;20382;-80
2024/01/19 10:38:31;;;;;;;5.90;4.20;;;;;;;;;;5054243;28;20439;-81
2024/01/19 10:40:57;;;;;;;5.47;4.78;;;;;;;;;;5054372;28;20413;-81
2024/01/19 10:43:23;;;;;;;5.68;5.10;;;;;;;;;;5054667;28;20381;-81
2024/01/19 10:45:49;;;;;;;6.88;4.65;;;;;;;;;;5056349;28;20376;-82
2024/01/19 10:48:26;;;;;;;5.93;4.70;;;;;;;;;;5072904;28;20412;-80
2024/01/19 10:51:01;;;;;;;4.32;3.20;;;;;;;;;;5057917;28;20421;-81
2024/01/19 10:53:27;;;;;;;4.45;3.60;;;;;;;;;;5057755;28;20405;-80
2024/01/19 10:55:53;;;;;;;4.55;3.22;;;;;;;;;;5057119;28;20389;-81
2024/01/19 10:58:19;;;;;;;3.40;2.90;;;;;;;;;;5057666;28;20378;-81
2024/01/19 11:00:45;;;;;;;3.53;3.17;;;;;;;;;;5058405;28;20416;-81
2024/01/19 11:03:11;;;;;;;4.70;3.30;;;;;;;;;;5057545;28;20407;-80
2024/01/19 11:05:37;;;;;;;5.10;2.90;;;;;;;;;;5057753;28;20378;-81
2024/01/19 11:08:03;;;;;;;3.38;2.50;;;;;;;;;;5058175;28;20847;-81
2024/01/19 11:10:30;;;;;;;3.53;2.80;;;;;;;;;;5059118;28;20388;-81
2024/01/19 11:12:57;;;;;;;3.47;2.85;;;;;;;;;;5058736;28;20747;-81
2024/01/19 11:15:28;;;;;;;4.25;3.10;;;;;;;;;;5057315;28;20385;-82
2024/01/19 11:17:55;;;;;;;4.18;2.90;;;;;;;;;;5057235;28;21143;-81
2024/01/19 11:20:22;;;;;;;4.07;2.95;;;;;;;;;;5057229;28;20424;-81
2024/01/19 11:22:48;;;;;;;3.10;2.50;;;;;;;;;;5058141;28;20392;-81
2024/01/19 11:25:17;;;;;;;3.75;2.70;;;;;;;;;;5072525;28;20412;-81
2024/01/19 11:27:51;;;;;;;3.10;2.65;;;;;;;;;;5059236;28;20420;-81
2024/01/19 11:30:23;;;;;;;4.05;3.20;;;;;;;;;;5058573;28;20377;-80
2024/01/19 11:32:50;;;;;;;3.00;2.65;;;;;;;;;;5059433;28;20416;-81
2024/01/19 11:35:36;;;;;;;2.70;2.05;;;;;;;;;;5058737;28;20813;-80
2024/01/19 11:38:02;;;;;;;4.50;2.38;;;;;;;;;;5058938;28;20489;-81
2024/01/19 11:40:29;;;;;;;3.75;2.20;;;;;;;;;;5057631;28;20402;-81
2024/01/19 11:42:55;;;;;;;2.75;1.70;;;;;;;;;;5056583;28;20480;-81
2024/01/19 11:45:27;;;;;;;2.10;1.80;;;;;;;;;;5056531;28;20879;-81
2024/01/19 11:47:53;;;;;;;3.75;2.75;;;;;;;;;;5056172;28;20855;-81
2024/01/19 11:50:39;;;;;;;3.28;2.10;;;;;;;;;;5054968;28;20417;-81
2024/01/19 11:53:05;;;;;;;1.92;1.73;;;;;;;;;;5055714;28;20763;-81
2024/01/19 11:55:31;;;;;;;1.70;1.60;;;;;;;;;;5055564;28;20511;-81
2024/01/19 11:57:57;;;;;;;1.87;1.57;;;;;;;;;;5054070;28;20378;-82
2024/01/19 12:00:23;;;;;;;1.38;1.27;;;;;;;;;;5054167;28;20431;-82
2024/01/19 12:02:50;;;;;;;2.13;1.67;;;;;;;;;;5054118;28;20374;-81
2024/01/19 12:05:22;;;;;;;2.20;1.30;;;;;;;;;;5054175;28;20397;-81
2024/01/19 12:07:48;;;;;;;1.60;1.15;;;;;;;;;;5054332;28;20372;-81
2024/01/19 12:10:20;;;;;;;2.67;1.50;;;;;;;;;;5035592;28;20774;-82
2024/01/19 12:12:47;;;;;;;1.50;1.27;;;;;;;;;;5053850;28;20389;-83
2024/01/19 12:15:15;;;;;;;1.40;1.30;;;;;;;;;;5054106;28;20385;-81
2024/01/19 12:17:42;;;;;;;1.63;1.40;;;;;;;;;;5053923;28;20382;-81
2024/01/19 12:20:09;;;;;;;1.90;1.52;;;;;;;;;;5054540;28;20401;-81
2024/01/19 12:22:38;;;;;;;3.17;1.40;;;;;;;;;;5053871;28;20389;-81
2024/01/19 12:25:17;;;;;;;1.60;1.40;;;;;;;;;;5055106;28;20918;-80
2024/01/19 12:27:44;;;;;;;2.00;1.80;;;;;;;;;;5055286;28;20412;-80
2024/01/19 12:30:14;;;;;;;2.33;1.52;;;;;;;;;;5054880;28;20858;-81
2024/01/19 12:32:40;;;;;;;4.70;1.85;;;;;;;;;;5055999;28;20386;-81
2024/01/19 12:35:06;;;;;;;2.65;1.38;;;;;;;;;;5058647;28;20408;-81
2024/01/19 12:37:32;;;;;;;3.40;1.48;;;;;;;;;;5057462;28;20839;-81
2024/01/19 12:40:17;;;;;;;4.22;2.08;;;;;;;;;;5059077;28;20426;-82
2024/01/19 12:42:43;;;;;;;3.47;2.03;;;;;;;;;;5056455;28;20381;-82
2024/01/19 12:45:11;;;;;;;2.97;1.92;;;;;;;;;;5056327;28;20377;-82
2024/01/19 12:47:41;;;;;;;2.35;1.75;;;;;;;;;;5055936;28;20377;-82
2024/01/19 12:50:08;;;;;;;3.38;2.30;;;;;;;;;;5055453;28;20429;-82
2024/01/19 12:52:34;;;;;;;2.50;2.08;;;;;;;;;;5055656;28;20377;-82
2024/01/19 12:55:00;;;;;;;5.30;2.13;;;;;;;;;;5057987;28;20924;-83
2024/01/19 12:57:26;;;;;;;2.80;1.50;;;;;;;;;;5055867;28;20420;-81
2024/01/19 13:00:08;;;;;;;2.53;1.60;;;;;;;;;;5055644;28;20416;-82
2024/01/19 13:02:34;;;;;;;2.08;1.42;;;;;;;;;;5055258;28;20408;-82
2024/01/19 13:05:00;;;;;;;2.60;1.90;;;;;;;;;;5055661;28;20381;-82
2024/01/19 13:07:26;;;;;;;3.07;1.47;;;;;;;;;;5055253;28;20440;-83
2024/01/19 13:10:05;;;;;;;2.15;1.52;;;;;;;;;;5055374;28;20393;-81
2024/01/19 13:12:32;;;;;;;3.90;1.85;;;;;;;;;;5055725;28;20770;-82
2024/01/19 13:15:07;;;;;;;2.97;1.70;;;;;;;;;;5056701;28;20728;-84
2024/01/19 13:17:34;;;;;;;9.15;2.03;;;;;;;;;;5055986;28;20457;-82
2024/01/19 13:20:04;;;;;;;5.43;2.30;;;;;;;;;;5056395;28;20412;-81
2024/01/19 13:22:30;;;;;;;2.20;1.63;;;;;;;;;;5055673;28;20522;-82
2024/01/19 13:24:56;;;;;;;1.92;1.42;;;;;;;;;;5056195;28;20860;-82
2024/01/19 13:27:22;;;;;;;2.60;1.90;;;;;;;;;;5060931;28;20466;-82
2024/01/19 13:29:48;;;;;;;2.58;1.65;;;;;;;;;;5072920;28;20385;-80
2024/01/19 13:32:14;;;;;;;3.25;2.33;;;;;;;;;;5058223;28;20893;-82
2024/01/19 13:34:40;;;;;;;5.82;1.98;;;;;;;;;;5073635;28;20400;-81
2024/01/19 13:37:06;;;;;;;3.03;1.83;;;;;;;;;;5074075;28;20882;-82
2024/01/19 13:39:32;;;;;;;5.65;1.70;;;;;;;;;;5056522;28;20444;-82
2024/01/19 13:41:58;;;;;;;3.20;1.70;;;;;;;;;;5056006;28;20784;-82
2024/01/19 13:44:25;;;;;;;2.03;1.70;;;;;;;;;;5058602;28;20404;-81
2024/01/19 13:46:51;;;;;;;2.42;1.75;;;;;;;;;;5061585;28;20382;-82
2024/01/19 13:49:17;;;;;;;2.17;1.70;;;;;;;;;;5058184;28;20464;-81
2024/01/19 13:51:43;;;;;;;4.43;1.90;;;;;;;;;;5058717;28;20423;-82
2024/01/19 13:54:09;;;;;;;3.47;2.10;;;;;;;;;;5059818;28;20792;-81
2024/01/19 13:56:35;;;;;;;2.40;1.70;;;;;;;;;;5057428;28;20377;-82
2024/01/19 13:59:01;;;;;;;2.33;1.90;;;;;;;;;;5060920;28;20747;-83
2024/01/19 14:01:27;;;;;;;2.67;1.80;;;;;;;;;;5060608;28;20463;-81
2024/01/19 14:03:53;;;;;;;2.75;1.65;;;;;;;;;;5057406;28;20378;-81
2024/01/19 14:06:19;;;;;;;5.90;2.22;;;;;;;;;;5056923;28;20380;-81
2024/01/19 14:08:45;;;;;;;2.90;2.08;;;;;;;;;;5057246;28;20381;-82
2024/01/19 14:11:13;;;;;;;3.05;1.80;;;;;;;;;;5057144;28;20419;-81
2024/01/19 14:13:39;;;;;;;2.30;1.80;;;;;;;;;;5057605;28;20788;-81
2024/01/19 14:16:06;;;;;;;3.42;1.92;;;;;;;;;;5038894;28;20397;-81
2024/01/19 14:18:32;;;;;;;2.80;1.60;;;;;;;;;;5057013;28;20389;-81
2024/01/19 14:20:58;;;;;;;2.13;1.70;;;;;;;;;;5059938;28;20437;-81
2024/01/19 14:23:24;;;;;;;4.43;2.07;;;;;;;;;;5060568;28;20378;-81
2024/01/19 14:25:51;;;;;;;2.60;1.95;;;;;;;;;;5060846;28;20858;-81
2024/01/19 14:28:17;;;;;;;2.50;1.70;;;;;;;;;;5060050;28;20515;-81
2024/01/19 14:30:43;;;;;;;1.83;1.63;;;;;;;;;;5059887;28;20409;-81
2024/01/19 14:33:09;;;;;;;6.80;4.20;;;;;;;;;;5061128;28;20468;-81
2024/01/19 14:35:37;;;;;;;2.55;2.25;;;;;;;;;;5064450;28;20591;-81
2024/01/19 14:38:03;;;;;;;6.05;2.60;;;;;;;;;;5061240;28;20377;-83
2024/01/19 14:40:29;;;;;;;2.97;2.33;;;;;;;;;;5060508;28;20440;-81
2024/01/19 14:42:55;;;;;;;3.05;2.30;;;;;;;;;;5061136;28;20427;-82